Terminal Aerodrome Forecast
Issued by NWS

Home | Current Version | Previous Version | Graphics & Text | Print | Product List | Glossary On
Versions: 1 2 3 4 5 6 7 8 9 10 11 12 13 14 15 16 17
000
FTUS43 KMPX 031731
TAFAXN
TAF
KAXN 031731Z 0318/0418 33025G32KT 3SM BLSN SCT025 BKN050
      TEMPO 0318/0322 2SM BLSN BKN025
     FM040100 30016G25KT P6SM SKC
     FM040600 30012KT P6SM SKC=

USA.gov is the U.S. government's official web portal to all federal, state and local government web resources and services.